AVA121 EGLL-SKBO
Flight info
| Callsign | AVA121 |
|---|---|
| Flight time | N/A |
| Altitude | 36000 |
| Route | GOGSI N621 EVTES N514 ADKIK DCT JOZMA DCT GAPLI/M085F360 DCT LASNO DCT 45N015W 41N020W 38N025W 35N030W 32N035W 29N040W/M085F380 24N050W DCT CITRS/N0495F380 UP533 ITEGO/N0487F400 UP533 KIKAS DCT DOPLO DOPLO5W |
| Aircraft | B788/H-SDE1E2E3FGHIJ2J3J4J5M1RWXY/LB1D1 |
Departure
| Time | N/A |
|---|---|
| Airport | London Heathrow Airport (EGLL) |
Arrival
| Time | 2026-05-05 00:51 |
|---|---|
| Airport | El Dorado International Airport (SKBO) |
| Time | Latitude | Longitude | Altitude | Speed | Heading |
|---|---|---|---|---|---|
| 2026-05-05 00:51 | 4.69198 | -74.12705 | 8374 ft | 4 kts | 309° |
| 2026-05-05 00:51 | 4.69212 | -74.12722 | 8375 ft | 3 kts | 309° |
| 2026-05-05 00:52 | 4.69235 | -74.12753 | 8372 ft | 14 kts | 307° |
| 2026-05-05 00:52 | 4.69320 | -74.12865 | 8374 ft | 22 kts | 307° |
| 2026-05-05 00:52 | 4.69412 | -74.12987 | 8373 ft | 22 kts | 307° |
| 2026-05-05 00:52 | 4.69502 | -74.13107 | 8373 ft | 22 kts | 307° |
| 2026-05-05 00:53 | 4.69583 | -74.13214 | 8372 ft | 16 kts | 307° |
| 2026-05-05 00:53 | 4.69592 | -74.13282 | 8372 ft | 8 kts | 251° |
| 2026-05-05 00:53 | 4.69591 | -74.13339 | 8374 ft | 8 kts | 291° |
| 2026-05-05 00:53 | 4.69617 | -74.13376 | 8375 ft | 7 kts | 309° |
| 2026-05-05 00:54 | 4.69645 | -74.13413 | 8374 ft | 8 kts | 307° |
| 2026-05-05 00:54 | 4.69678 | -74.13455 | 8372 ft | 8 kts | 307° |
| 2026-05-05 00:54 | 4.69694 | -74.13477 | 8371 ft | 8 kts | 307° |
| 2026-05-05 00:54 | 4.69706 | -74.13493 | 8375 ft | 11 kts | 308° |
| 2026-05-05 00:55 | 4.69723 | -74.13515 | 8375 ft | 19 kts | 308° |
| 2026-05-05 00:55 | 4.69747 | -74.13546 | 8374 ft | 18 kts | 307° |
| 2026-05-05 00:55 | 4.69782 | -74.13623 | 8372 ft | 8 kts | 250° |
| 2026-05-05 00:55 | 4.69775 | -74.13635 | 8373 ft | 7 kts | 237° |
| 2026-05-05 00:56 | 4.69764 | -74.13662 | 8374 ft | 5 kts | 261° |
| 2026-05-05 00:56 | 4.69766 | -74.13686 | 8374 ft | 1 kts | 296° |
| 2026-05-05 00:56 | 4.69768 | -74.13690 | 8373 ft | 5 kts | 301° |
| 2026-05-05 00:57 | 4.69781 | -74.13709 | 8372 ft | 7 kts | 304° |
| 2026-05-05 00:57 | 4.69810 | -74.13750 | 8373 ft | 7 kts | 307° |
| 2026-05-05 00:57 | 4.69828 | -74.13780 | 8374 ft | 2 kts | 271° |
| 2026-05-05 00:57 | 4.69826 | -74.13791 | 8374 ft | 1 kts | 260° |
| 2026-05-05 00:58 | 4.69817 | -74.13806 | 8372 ft | 2 kts | 219° |
| 2026-05-05 00:58 | 4.69811 | -74.13810 | 8371 ft | 1 kts | 219° |
| 2026-05-05 00:58 | 4.69807 | -74.13814 | 8373 ft | 2 kts | 218° |
| 2026-05-05 00:58 | 4.69796 | -74.13822 | 8374 ft | 2 kts | 217° |
| 2026-05-05 00:59 | 4.69794 | -74.13824 | 8374 ft | 0 kts | 217° |
| 2026-05-05 00:59 | 4.69793 | -74.13825 | 8374 ft | 2 kts | 217° |
| 2026-05-05 01:00 | 4.69784 | -74.13832 | 8375 ft | 2 kts | 217° |
| 2026-05-05 01:00 | 4.69779 | -74.13836 | 8374 ft | 0 kts | 217° |
| 2026-05-05 01:00 | 4.69778 | -74.13836 | 8374 ft | 0 kts | 218° |
| 2026-05-05 01:00 | 4.69782 | -74.13833 | 8375 ft | 1 kts | 218° |
| 2026-05-05 01:01 | 4.69778 | -74.13836 | 8374 ft | 0 kts | 217° |